createdAt,value
2019-01-04T00:00:15.524Z,1.38
2019-01-04T00:01:15.553Z,1.37
2019-01-04T00:02:15.587Z,1.38
2019-01-04T00:03:15.564Z,1.42
2019-01-04T00:04:15.570Z,1.23
2019-01-04T00:05:15.590Z,1.19
2019-01-04T00:06:15.616Z,1.24
2019-01-04T00:07:15.627Z,1.30
2019-01-04T00:08:15.627Z,1.34
2019-01-04T00:09:15.707Z,1.38
2019-01-04T00:10:15.662Z,1.37
2019-01-04T00:11:15.671Z,1.38
2019-01-04T00:12:15.677Z,1.41
2019-01-04T00:13:15.705Z,1.42
2019-01-04T00:14:15.704Z,1.41
2019-01-04T00:15:15.721Z,1.45
2019-01-04T00:16:15.742Z,1.42
2019-01-04T00:17:15.744Z,1.44
2019-01-04T00:18:15.762Z,1.49
2019-01-04T00:19:15.771Z,1.52
2019-01-04T00:20:15.786Z,1.55
2019-01-04T00:21:15.796Z,1.41
2019-01-04T00:22:15.807Z,1.45
2019-01-04T00:23:15.820Z,1.44
2019-01-04T00:24:15.831Z,1.23
2019-01-04T00:25:15.845Z,1.31
2019-01-04T00:26:15.860Z,1.35
2019-01-04T00:27:15.872Z,1.41
2019-01-04T00:28:15.888Z,1.44
2019-01-04T00:29:15.899Z,1.45
2019-01-04T00:30:15.929Z,1.40
2019-01-04T00:31:15.932Z,1.52
2019-01-04T00:32:15.934Z,1.56
2019-01-04T00:33:15.953Z,1.56
2019-01-04T00:34:15.969Z,1.60
2019-01-04T00:35:15.980Z,1.59
2019-01-04T00:36:15.992Z,1.66
2019-01-04T00:37:16.025Z,1.67
2019-01-04T00:38:16.018Z,1.66
2019-01-04T00:39:16.033Z,1.53
2019-01-04T00:40:16.038Z,1.45
2019-01-04T00:41:16.055Z,1.52
2019-01-04T00:42:16.094Z,1.58
2019-01-04T00:43:16.084Z,1.58
2019-01-04T00:44:16.097Z,1.56
2019-01-04T00:45:16.122Z,1.73
2019-01-04T00:46:16.146Z,1.71
2019-01-04T00:47:16.137Z,1.68
2019-01-04T00:48:16.161Z,1.62
2019-01-04T00:49:16.162Z,1.62
2019-01-04T00:50:16.175Z,1.68
2019-01-04T00:51:16.190Z,1.68
2019-01-04T00:52:16.195Z,1.66
2019-01-04T00:53:16.225Z,1.62
2019-01-04T00:54:16.227Z,1.80
2019-01-04T00:55:16.243Z,1.68
2019-01-04T00:56:16.251Z,1.77
2019-01-04T00:57:16.268Z,1.84
2019-01-04T00:58:16.292Z,1.84
2019-01-04T00:59:16.297Z,1.80
2019-01-04T01:00:16.312Z,1.91
2019-01-04T01:01:16.320Z,1.95
2019-01-04T01:02:16.345Z,1.91
2019-01-04T01:03:16.350Z,1.91
2019-01-04T01:04:16.364Z,1.91
2019-01-04T01:05:16.368Z,1.95
2019-01-04T01:06:16.394Z,1.94
2019-01-04T01:07:16.426Z,2.06
2019-01-04T01:08:16.411Z,2.07
2019-01-04T01:09:16.428Z,2.06
2019-01-04T01:10:16.440Z,2.10
2019-01-04T01:11:16.468Z,2.14
2019-01-04T01:12:16.467Z,2.14
2019-01-04T01:13:16.494Z,2.08
2019-01-04T01:14:16.491Z,2.10
2019-01-04T01:15:16.507Z,2.11
2019-01-04T01:16:16.514Z,1.84
2019-01-04T01:17:16.535Z,1.91
2019-01-04T01:18:16.549Z,1.97
2019-01-04T01:19:16.562Z,1.94
2019-01-04T01:20:16.575Z,1.99
2019-01-04T01:21:16.589Z,1.88
2019-01-04T01:22:16.606Z,1.92
2019-01-04T01:23:16.612Z,1.88
2019-01-04T01:24:16.632Z,1.87
2019-01-04T01:25:16.635Z,1.85
2019-01-04T01:26:16.656Z,2.08
2019-01-04T01:27:16.666Z,2.08
2019-01-04T01:28:16.679Z,2.08
2019-01-04T01:29:16.693Z,2.18
2019-01-04T01:30:16.707Z,2.17
2019-01-04T01:31:16.726Z,2.17
2019-01-04T01:32:16.755Z,2.06
2019-01-04T01:33:16.761Z,2.02
2019-01-04T01:34:16.756Z,1.95
2019-01-04T01:35:16.780Z,2.04
2019-01-04T01:36:16.793Z,2.10
2019-01-04T01:37:16.807Z,2.11
2019-01-04T01:38:16.822Z,2.07
2019-01-04T01:39:16.825Z,2.15
2019-01-04T01:40:18.088Z,2.13
2019-01-04T01:41:16.870Z,2.26
2019-01-04T01:42:16.914Z,2.26
2019-01-04T01:43:16.875Z,2.25
2019-01-04T01:44:16.890Z,2.25
2019-01-04T01:45:16.935Z,2.29
2019-01-04T01:46:16.924Z,2.18
2019-01-04T01:47:16.940Z,2.31
2019-01-04T01:48:16.947Z,2.31
2019-01-04T01:49:16.959Z,2.25
2019-01-04T01:50:16.982Z,2.35
2019-01-04T01:51:17.003Z,2.43
2019-01-04T01:52:17.005Z,2.36
2019-01-04T01:53:17.017Z,2.32
2019-01-04T01:54:17.030Z,2.39
2019-01-04T01:55:17.042Z,2.38
2019-01-04T01:56:17.054Z,2.32
2019-01-04T01:57:17.073Z,2.26
2019-01-04T01:58:17.093Z,2.29
2019-01-04T01:59:17.091Z,2.20
2019-01-04T02:00:17.107Z,2.28
2019-01-04T02:01:17.148Z,2.26
2019-01-04T02:02:17.142Z,2.22
2019-01-04T02:03:17.168Z,2.33
2019-01-04T02:04:17.162Z,2.26
2019-01-04T02:05:17.178Z,2.33
2019-01-04T02:06:17.188Z,2.25
2019-01-04T02:07:17.221Z,2.42
2019-01-04T02:08:17.224Z,2.49
2019-01-04T02:09:17.246Z,2.38
2019-01-04T02:10:17.248Z,2.36
2019-01-04T02:11:17.260Z,2.49
2019-01-04T02:12:17.267Z,2.36
2019-01-04T02:13:17.318Z,2.36
2019-01-04T02:14:17.295Z,2.42
2019-01-04T02:15:17.319Z,2.38
2019-01-04T02:16:17.345Z,2.36
2019-01-04T02:17:17.345Z,2.33
2019-01-04T02:18:17.350Z,2.29
2019-01-04T02:19:17.365Z,2.36
2019-01-04T02:20:17.382Z,2.29
2019-01-04T02:21:17.414Z,2.25
2019-01-04T02:22:17.419Z,2.26
2019-01-04T02:23:17.420Z,2.25
2019-01-04T02:24:17.442Z,2.24
2019-01-04T02:25:17.448Z,2.25
2019-01-04T02:26:17.456Z,2.24
2019-01-04T02:27:17.486Z,2.20
2019-01-04T02:28:17.499Z,2.24
2019-01-04T02:29:17.508Z,2.24
2019-01-04T02:30:17.512Z,2.24
2019-01-04T02:31:17.530Z,2.14
2019-01-04T02:32:17.556Z,2.13
2019-01-04T02:33:17.556Z,2.13
2019-01-04T02:34:17.569Z,2.08
2019-01-04T02:35:17.579Z,2.08
2019-01-04T02:36:17.620Z,2.17
2019-01-04T02:37:17.614Z,2.15
2019-01-04T02:38:17.630Z,2.02
2019-01-04T02:39:17.635Z,2.11
2019-01-04T02:40:17.653Z,1.97
2019-01-04T02:41:17.666Z,1.97
2019-01-04T02:42:17.673Z,2.04
2019-01-04T02:43:17.718Z,1.97
2019-01-04T02:44:17.717Z,2.02
2019-01-04T02:45:17.711Z,1.97
2019-01-04T02:46:17.738Z,1.99
2019-01-04T02:47:17.751Z,1.99
2019-01-04T02:48:17.755Z,2.00
2019-01-04T02:49:17.786Z,1.97
2019-01-04T02:50:17.789Z,1.95
2019-01-04T02:51:17.798Z,2.00
2019-01-04T02:52:17.811Z,1.88
2019-01-04T02:53:17.818Z,1.84
2019-01-04T02:54:17.917Z,1.88
2019-01-04T02:55:17.846Z,1.89
2019-01-04T02:56:17.860Z,1.80
2019-01-04T02:57:17.870Z,1.73
2019-01-04T02:58:17.892Z,1.70
2019-01-04T02:59:17.902Z,1.58
2019-01-04T03:00:17.914Z,1.66
2019-01-04T03:01:17.941Z,1.52
2019-01-04T03:02:17.942Z,1.52
2019-01-04T03:03:17.960Z,1.48
2019-01-04T03:04:17.967Z,1.45
2019-01-04T03:05:18.018Z,1.50
2019-01-04T03:06:17.992Z,1.56
2019-01-04T03:07:18.033Z,1.53
2019-01-04T03:08:18.062Z,1.50
2019-01-04T03:09:18.050Z,1.50
2019-01-04T03:10:18.053Z,1.59
2019-01-04T03:11:18.087Z,1.55
2019-01-04T03:12:18.070Z,1.56
2019-01-04T03:13:18.095Z,1.52
2019-01-04T03:14:18.103Z,1.53
2019-01-04T03:15:18.130Z,1.59
2019-01-04T03:16:18.165Z,1.52
2019-01-04T03:17:18.147Z,1.59
2019-01-04T03:18:18.162Z,1.55
2019-01-04T03:19:18.228Z,1.60
2019-01-04T03:20:18.195Z,1.59
2019-01-04T03:21:18.213Z,1.53
2019-01-04T03:22:18.211Z,1.48
2019-01-04T03:23:18.264Z,1.48
2019-01-04T03:24:18.254Z,1.49
2019-01-04T03:25:18.252Z,1.50
2019-01-04T03:26:18.277Z,1.45
2019-01-04T03:27:18.268Z,1.28
2019-01-04T03:28:18.280Z,1.35
2019-01-04T03:29:18.312Z,1.26
2019-01-04T03:30:18.318Z,1.35
2019-01-04T03:31:18.333Z,1.17
2019-01-04T03:32:18.344Z,1.14
2019-01-04T03:33:18.373Z,1.17
2019-01-04T03:34:18.416Z,1.08
2019-01-04T03:35:18.366Z,0.98
2019-01-04T03:36:18.390Z,1.04
2019-01-04T03:37:18.405Z,1.13
2019-01-04T03:38:18.542Z,1.02
2019-01-04T03:39:18.443Z,0.99
2019-01-04T03:40:18.436Z,1.04
2019-01-04T03:41:18.449Z,1.08
2019-01-04T03:42:18.543Z,1.23
2019-01-04T03:43:18.482Z,1.13
2019-01-04T03:44:18.486Z,1.20
2019-01-04T03:45:18.561Z,1.20
2019-01-04T03:46:18.519Z,1.28
2019-01-04T03:47:18.526Z,1.17
2019-01-04T03:48:18.543Z,1.17
2019-01-04T03:49:18.550Z,1.16
2019-01-04T03:50:18.583Z,1.23
2019-01-04T03:51:18.599Z,1.20
2019-01-04T03:52:18.603Z,1.24
2019-01-04T03:53:18.647Z,1.31
2019-01-04T03:54:18.679Z,1.41
2019-01-04T03:55:18.667Z,1.50
2019-01-04T03:56:18.712Z,1.38
2019-01-04T03:57:18.681Z,1.34
2019-01-04T03:58:18.719Z,1.42
2019-01-04T03:59:18.705Z,1.52
2019-01-04T04:00:18.716Z,1.56
2019-01-04T04:01:18.727Z,1.62
2019-01-04T04:02:18.734Z,1.53
2019-01-04T04:03:18.730Z,1.55
2019-01-04T04:04:18.763Z,1.67
2019-01-04T04:05:18.758Z,1.71
2019-01-04T04:06:18.833Z,1.73
2019-01-04T04:07:18.800Z,1.71
2019-01-04T04:08:18.892Z,1.68
2019-01-04T04:09:18.830Z,1.81
2019-01-04T04:10:18.830Z,1.88
2019-01-04T04:11:18.834Z,1.80
2019-01-04T04:12:18.850Z,1.91
2019-01-04T04:13:18.862Z,1.95
2019-01-04T04:14:18.910Z,1.97
2019-01-04T04:15:18.887Z,2.00
2019-01-04T04:16:18.908Z,2.06
2019-01-04T04:17:18.939Z,2.04
2019-01-04T04:18:19.026Z,2.15
2019-01-04T04:19:18.946Z,2.13
2019-01-04T04:20:18.956Z,2.11
2019-01-04T04:21:18.980Z,2.15
2019-01-04T04:22:18.989Z,2.17
2019-01-04T04:23:19.030Z,2.11
2019-01-04T04:24:19.020Z,2.06
2019-01-04T04:25:19.073Z,2.08
2019-01-04T04:26:19.095Z,2.06
2019-01-04T04:27:19.057Z,2.24
2019-01-04T04:28:19.068Z,2.20
2019-01-04T04:29:19.078Z,2.24
2019-01-04T04:30:19.134Z,2.28
2019-01-04T04:31:19.153Z,2.22
2019-01-04T04:32:19.125Z,2.33
2019-01-04T04:33:19.133Z,2.33
2019-01-04T04:34:19.146Z,2.32
2019-01-04T04:35:19.161Z,2.36
2019-01-04T04:36:19.182Z,2.36
2019-01-04T04:37:19.190Z,2.39
2019-01-04T04:38:19.204Z,2.38
2019-01-04T04:39:19.214Z,2.28
2019-01-04T04:40:19.222Z,2.24
2019-01-04T04:41:19.236Z,2.24
2019-01-04T04:42:19.271Z,2.28
2019-01-04T04:43:19.282Z,2.25
2019-01-04T04:44:19.298Z,2.26
2019-01-04T04:45:19.295Z,2.39
2019-01-04T04:46:19.306Z,2.49
2019-01-04T04:47:19.318Z,2.42
2019-01-04T04:48:19.338Z,2.50
2019-01-04T04:49:19.344Z,2.50
2019-01-04T04:50:19.357Z,2.47
2019-01-04T04:51:19.375Z,2.50
2019-01-04T04:52:19.403Z,2.42
2019-01-04T04:53:19.412Z,2.33
2019-01-04T04:54:19.411Z,2.28
2019-01-04T04:55:19.426Z,2.26
2019-01-04T04:56:19.439Z,2.25
2019-01-04T04:57:19.462Z,2.31
2019-01-04T04:58:19.477Z,2.31
2019-01-04T04:59:19.502Z,2.38
2019-01-04T05:00:19.529Z,2.49
2019-01-04T05:01:19.534Z,2.49
2019-01-04T05:02:19.531Z,2.51
2019-01-04T05:03:19.548Z,2.56
2019-01-04T05:04:19.559Z,2.31
2019-01-04T05:05:19.588Z,2.36
2019-01-04T05:06:19.587Z,2.54
2019-01-04T05:07:19.598Z,2.64
2019-01-04T05:08:19.650Z,2.64
2019-01-04T05:09:19.622Z,2.69
2019-01-04T05:10:19.633Z,2.72
2019-01-04T05:11:19.643Z,2.74
2019-01-04T05:12:19.658Z,2.74
2019-01-04T05:13:19.673Z,2.83
2019-01-04T05:14:19.718Z,2.85
2019-01-04T05:15:19.709Z,2.87
2019-01-04T05:16:19.715Z,2.86
2019-01-04T05:17:19.735Z,2.77
2019-01-04T05:18:19.774Z,2.67
2019-01-04T05:19:19.783Z,2.67
2019-01-04T05:20:19.777Z,2.71
2019-01-04T05:21:19.808Z,2.80
2019-01-04T05:22:19.804Z,2.77
2019-01-04T05:23:19.823Z,2.89
2019-01-04T05:24:19.831Z,2.87
2019-01-04T05:25:19.838Z,2.89
2019-01-04T05:26:19.867Z,2.74
2019-01-04T05:27:19.869Z,2.74
2019-01-04T05:28:19.903Z,2.85
2019-01-04T05:29:19.903Z,2.83
2019-01-04T05:30:19.910Z,2.82
2019-01-04T05:31:19.926Z,2.90
2019-01-04T05:32:19.934Z,2.86
2019-01-04T05:33:19.956Z,2.92
2019-01-04T05:34:19.994Z,2.93
2019-01-04T05:35:20.006Z,2.92
2019-01-04T05:36:19.996Z,2.86
2019-01-04T05:37:20.016Z,2.68
2019-01-04T05:38:20.032Z,2.89
2019-01-04T05:39:20.036Z,2.86
2019-01-04T05:40:20.047Z,2.72
2019-01-04T05:41:20.059Z,2.65
2019-01-04T05:42:20.140Z,2.67
2019-01-04T05:43:20.088Z,2.67
2019-01-04T05:44:20.111Z,2.77
2019-01-04T05:45:20.119Z,2.53
2019-01-04T05:46:20.139Z,2.51
2019-01-04T05:47:20.158Z,2.36
2019-01-04T05:48:20.194Z,2.26
2019-01-04T05:49:20.173Z,2.25
2019-01-04T05:50:20.184Z,2.22
2019-01-04T05:51:20.259Z,2.31
2019-01-04T05:52:20.229Z,2.53
2019-01-04T05:53:20.257Z,2.33
2019-01-04T05:54:20.256Z,2.28
2019-01-04T05:55:20.270Z,2.33
2019-01-04T05:56:20.280Z,2.36
2019-01-04T05:57:20.324Z,2.29
2019-01-04T05:58:20.312Z,2.32
2019-01-04T05:59:20.310Z,2.22
2019-01-04T06:00:20.323Z,2.24
2019-01-04T06:01:20.333Z,2.31
2019-01-04T06:02:20.353Z,2.32
2019-01-04T06:03:20.372Z,2.26
2019-01-04T06:04:20.375Z,2.29
2019-01-04T06:05:20.399Z,2.60
2019-01-04T06:06:20.408Z,2.64
2019-01-04T06:07:20.417Z,2.57
2019-01-04T06:08:20.438Z,2.74
2019-01-04T06:09:20.447Z,2.53
2019-01-04T06:10:20.461Z,2.68
2019-01-04T06:11:20.480Z,2.75
2019-01-04T06:12:20.492Z,2.80
2019-01-04T06:13:20.505Z,2.86
2019-01-04T06:14:20.531Z,2.87
2019-01-04T06:15:20.551Z,2.75
2019-01-04T06:16:20.538Z,2.53
2019-01-04T06:17:20.560Z,2.57
2019-01-04T06:18:20.568Z,2.50
2019-01-04T06:19:20.589Z,2.33
2019-01-04T06:20:20.604Z,2.35
2019-01-04T06:21:20.614Z,2.28
2019-01-04T06:22:20.624Z,2.50
2019-01-04T06:23:20.645Z,2.38
2019-01-04T06:24:20.657Z,2.36
2019-01-04T06:25:20.666Z,2.36
2019-01-04T06:26:20.679Z,2.39
2019-01-04T06:27:20.692Z,2.38
2019-01-04T06:28:20.707Z,2.31
2019-01-04T06:29:20.784Z,2.43
2019-01-04T06:30:20.736Z,2.36
2019-01-04T06:31:20.774Z,2.43
2019-01-04T06:32:20.841Z,2.47
2019-01-04T06:33:20.775Z,2.54
2019-01-04T06:34:20.796Z,2.54
2019-01-04T06:35:20.810Z,2.62
2019-01-04T06:36:20.815Z,2.80
2019-01-04T06:37:20.836Z,2.61
2019-01-04T06:38:20.874Z,2.64
2019-01-04T06:39:20.868Z,2.60
2019-01-04T06:40:20.874Z,2.75
2019-01-04T06:41:20.893Z,2.56
2019-01-04T06:42:20.902Z,2.79
2019-01-04T06:43:20.914Z,2.85
2019-01-04T06:44:20.919Z,2.87
2019-01-04T06:45:20.968Z,3.00
2019-01-04T06:46:20.950Z,3.01
2019-01-04T06:47:21.083Z,2.87
2019-01-04T06:48:20.985Z,3.00
2019-01-04T06:49:20.991Z,3.01
2019-01-04T06:50:21.013Z,3.26
2019-01-04T06:51:21.017Z,3.01
2019-01-04T06:52:21.060Z,3.14
2019-01-04T06:53:21.052Z,3.26
2019-01-04T06:54:21.069Z,3.36
2019-01-04T06:55:21.074Z,3.36
2019-01-04T06:56:21.093Z,3.40
2019-01-04T06:57:21.133Z,3.45
2019-01-04T06:58:21.116Z,3.41
2019-01-04T06:59:21.132Z,3.50
2019-01-04T07:00:21.146Z,3.62
2019-01-04T07:01:21.158Z,3.55
2019-01-04T07:02:21.171Z,3.68
2019-01-04T07:03:21.190Z,3.58
2019-01-04T07:04:21.201Z,3.59
2019-01-04T07:05:21.212Z,3.68
2019-01-04T07:06:21.234Z,3.51
2019-01-04T07:07:21.245Z,3.53
2019-01-04T07:08:21.256Z,3.62
2019-01-04T07:09:21.284Z,3.59
2019-01-04T07:10:21.286Z,3.66
2019-01-04T07:11:21.299Z,3.63
2019-01-04T07:12:21.313Z,3.53
2019-01-04T07:13:21.329Z,3.60
2019-01-04T07:14:21.392Z,3.70
2019-01-04T07:15:21.369Z,3.68
2019-01-04T07:16:21.396Z,3.66
2019-01-04T07:17:21.399Z,3.69
2019-01-04T07:18:21.431Z,3.65
2019-01-04T07:19:21.412Z,3.69
2019-01-04T07:20:21.423Z,3.59
2019-01-04T07:21:21.441Z,3.69
2019-01-04T07:22:21.454Z,3.56
2019-01-04T07:23:21.466Z,3.48
2019-01-04T07:24:21.479Z,3.65
2019-01-04T07:25:21.502Z,3.74
2019-01-04T07:26:21.509Z,3.66
2019-01-04T07:27:21.524Z,3.63
2019-01-04T07:28:21.535Z,3.58
2019-01-04T07:29:21.561Z,3.51
2019-01-04T07:30:21.587Z,3.47
2019-01-04T07:31:21.585Z,3.48
2019-01-04T07:32:21.606Z,3.65
2019-01-04T07:33:21.720Z,3.76
2019-01-04T07:34:21.632Z,3.70
2019-01-04T07:35:21.657Z,3.56
2019-01-04T07:36:21.673Z,3.62
2019-01-04T07:37:21.675Z,3.69
2019-01-04T07:38:21.676Z,3.83
2019-01-04T07:39:21.694Z,3.76
2019-01-04T07:40:21.709Z,3.77
2019-01-04T07:41:21.719Z,3.80
2019-01-04T07:42:21.745Z,3.84
2019-01-04T07:43:21.766Z,3.66
2019-01-04T07:44:21.768Z,3.62
2019-01-04T07:45:21.792Z,3.69
2019-01-04T07:46:21.811Z,3.73
2019-01-04T07:47:21.809Z,3.55
2019-01-04T07:48:21.826Z,3.62
2019-01-04T07:49:21.834Z,3.76
2019-01-04T07:50:21.848Z,3.83
2019-01-04T07:51:21.868Z,3.73
2019-01-04T07:52:21.878Z,3.70
2019-01-04T07:53:21.902Z,3.69
2019-01-04T07:54:21.904Z,3.83
2019-01-04T07:55:21.923Z,3.83
2019-01-04T07:56:21.952Z,3.73
2019-01-04T07:57:21.954Z,3.73
2019-01-04T07:58:21.969Z,3.86
2019-01-04T07:59:21.983Z,3.87
2019-01-04T08:00:21.991Z,3.81
2019-01-04T08:01:22.014Z,3.74
2019-01-04T08:02:22.042Z,3.80
2019-01-04T08:03:22.034Z,3.76
2019-01-04T08:04:22.048Z,3.62
2019-01-04T08:05:22.070Z,3.66
2019-01-04T08:06:22.088Z,3.65
2019-01-04T08:07:22.095Z,3.68
2019-01-04T08:08:22.105Z,3.81
2019-01-04T08:09:22.122Z,3.94
2019-01-04T08:10:22.157Z,3.84
2019-01-04T08:11:22.181Z,3.78
2019-01-04T08:12:22.163Z,3.81
2019-01-04T08:13:22.177Z,3.74
2019-01-04T08:14:22.193Z,3.81
2019-01-04T08:15:22.209Z,3.94
2019-01-04T08:16:22.233Z,3.94
2019-01-04T08:17:22.234Z,4.04
2019-01-04T08:18:22.259Z,4.01
2019-01-04T08:19:22.272Z,3.99
2019-01-04T08:20:22.288Z,4.05
2019-01-04T08:21:22.298Z,4.01
2019-01-04T08:22:22.313Z,3.99
2019-01-04T08:23:22.326Z,4.01
2019-01-04T08:24:22.343Z,3.99
2019-01-04T08:25:22.374Z,3.86
2019-01-04T08:26:22.368Z,3.92
2019-01-04T08:27:22.384Z,3.92
2019-01-04T08:28:22.416Z,3.95
2019-01-04T08:29:22.424Z,3.80
2019-01-04T08:30:22.425Z,3.78
2019-01-04T08:31:22.447Z,3.69
2019-01-04T08:32:22.509Z,3.73
2019-01-04T08:33:22.494Z,3.94
2019-01-04T08:34:22.498Z,4.04
2019-01-04T08:35:22.497Z,4.05
2019-01-04T08:36:22.542Z,4.05
2019-01-04T08:37:22.530Z,4.02
2019-01-04T08:38:22.544Z,4.02
2019-01-04T08:39:22.566Z,4.04
2019-01-04T08:40:22.595Z,4.05
2019-01-04T08:41:22.602Z,4.14
2019-01-04T08:42:22.596Z,3.96
2019-01-04T08:43:22.626Z,3.87
2019-01-04T08:44:22.629Z,3.96
2019-01-04T08:45:22.643Z,3.99
2019-01-04T08:46:22.660Z,4.02
2019-01-04T08:47:22.676Z,4.16
2019-01-04T08:48:22.691Z,4.16
2019-01-04T08:49:22.703Z,4.04
2019-01-04T08:50:22.724Z,3.98
2019-01-04T08:51:22.736Z,3.94
2019-01-04T08:52:22.746Z,4.08
2019-01-04T08:53:22.760Z,3.99
2019-01-04T08:54:22.777Z,4.08
2019-01-04T08:55:22.811Z,3.92
2019-01-04T08:56:22.804Z,4.08
2019-01-04T08:57:22.830Z,4.02
2019-01-04T08:58:22.836Z,3.98
2019-01-04T08:59:22.845Z,4.01
2019-01-04T09:00:22.868Z,3.96
2019-01-04T09:01:22.876Z,4.04
2019-01-04T09:02:22.916Z,4.14
2019-01-04T09:03:22.913Z,4.17
2019-01-04T09:04:22.919Z,4.13
2019-01-04T09:05:22.961Z,4.02
2019-01-04T09:06:22.955Z,4.17
2019-01-04T09:07:22.981Z,4.02
2019-01-04T09:08:22.985Z,4.17
2019-01-04T09:09:23.003Z,4.17
2019-01-04T09:10:23.012Z,4.08
2019-01-04T09:11:23.021Z,4.12
2019-01-04T09:12:23.072Z,4.20
2019-01-04T09:13:23.049Z,4.20
2019-01-04T09:14:23.074Z,4.23
2019-01-04T09:15:23.091Z,4.28
2019-01-04T09:16:23.109Z,4.16
2019-01-04T09:17:23.181Z,4.22
2019-01-04T09:18:23.129Z,4.19
2019-01-04T09:19:23.146Z,4.13
2019-01-04T09:20:23.155Z,4.05
2019-01-04T09:21:23.167Z,4.02
2019-01-04T09:22:23.193Z,4.10
2019-01-04T09:23:23.204Z,3.99
2019-01-04T09:24:23.219Z,4.12
2019-01-04T09:25:23.240Z,4.23
2019-01-04T09:26:23.248Z,4.17
2019-01-04T09:27:23.259Z,4.13
2019-01-04T09:28:23.276Z,4.22
2019-01-04T09:29:23.283Z,4.31
2019-01-04T09:30:23.304Z,4.06
2019-01-04T09:31:23.322Z,4.05
2019-01-04T09:32:23.333Z,3.94
2019-01-04T09:33:23.350Z,3.95
2019-01-04T09:34:23.365Z,4.16
2019-01-04T09:35:23.405Z,3.98
2019-01-04T09:36:23.392Z,3.80
2019-01-04T09:37:23.402Z,4.08
2019-01-04T09:38:23.419Z,4.01
2019-01-04T09:39:23.437Z,4.01
2019-01-04T09:40:23.457Z,4.19
2019-01-04T09:41:23.468Z,4.02
2019-01-04T09:42:23.476Z,3.95
2019-01-04T09:43:23.493Z,3.80
2019-01-04T09:44:23.521Z,3.84
2019-01-04T09:45:23.527Z,4.04
2019-01-04T09:46:23.537Z,3.96
2019-01-04T09:47:23.549Z,3.95
2019-01-04T09:48:23.563Z,3.99
2019-01-04T09:49:23.583Z,4.17
2019-01-04T09:50:23.593Z,4.17
2019-01-04T09:51:23.622Z,4.28
2019-01-04T09:52:23.630Z,4.22
2019-01-04T09:53:23.653Z,4.14
2019-01-04T09:54:23.695Z,4.17
2019-01-04T09:55:23.690Z,4.20
2019-01-04T09:56:23.698Z,4.40
2019-01-04T09:57:23.838Z,4.44
2019-01-04T09:58:23.736Z,4.37
2019-01-04T09:59:23.742Z,4.31
2019-01-04T10:00:23.739Z,4.34
2019-01-04T10:01:23.789Z,4.38
2019-01-04T10:02:23.782Z,4.42
2019-01-04T10:03:23.786Z,4.52
2019-01-04T10:04:23.813Z,4.55
2019-01-04T10:05:23.811Z,4.58
2019-01-04T10:06:23.849Z,4.48
2019-01-04T10:07:23.844Z,4.48
2019-01-04T10:08:23.861Z,4.40
2019-01-04T10:09:23.884Z,4.41
2019-01-04T10:10:23.890Z,4.44
2019-01-04T10:11:23.903Z,4.38
2019-01-04T10:12:23.926Z,4.38
2019-01-04T10:13:23.975Z,4.26
2019-01-04T10:14:23.945Z,4.35
2019-01-04T10:15:23.964Z,4.40
2019-01-04T10:16:23.997Z,4.40
2019-01-04T10:17:24.002Z,4.52
2019-01-04T10:18:24.037Z,4.55
2019-01-04T10:19:24.025Z,4.78
2019-01-04T10:20:24.045Z,4.59
2019-01-04T10:21:24.073Z,4.40
2019-01-04T10:22:24.090Z,4.50
2019-01-04T10:23:24.089Z,4.68
2019-01-04T10:24:24.088Z,4.73
2019-01-04T10:25:24.122Z,4.56
2019-01-04T10:26:24.121Z,4.70
2019-01-04T10:27:24.142Z,4.53
2019-01-04T10:28:24.152Z,4.56
2019-01-04T10:29:24.171Z,4.53
2019-01-04T10:30:24.177Z,4.68
2019-01-04T10:31:24.201Z,4.75
2019-01-04T10:32:24.212Z,4.82
2019-01-04T10:33:24.245Z,4.62
2019-01-04T10:34:24.329Z,4.80
2019-01-04T10:35:24.381Z,4.75
2019-01-04T10:36:24.299Z,4.77
2019-01-04T10:37:24.290Z,4.75
2019-01-04T10:38:24.309Z,4.86
2019-01-04T10:39:24.327Z,4.86
2019-01-04T10:40:24.347Z,4.71
2019-01-04T10:41:24.355Z,4.70
2019-01-04T10:42:24.367Z,4.62
2019-01-04T10:43:24.393Z,4.75
2019-01-04T10:44:24.395Z,4.78
2019-01-04T10:45:24.417Z,4.80
2019-01-04T10:46:24.437Z,4.70
2019-01-04T10:47:24.429Z,4.73
2019-01-04T10:48:24.455Z,4.67
2019-01-04T10:49:24.471Z,4.59
2019-01-04T10:50:24.498Z,4.62
2019-01-04T10:51:24.529Z,4.71
2019-01-04T10:52:24.516Z,4.73
2019-01-04T10:53:24.531Z,4.70
2019-01-04T10:54:24.707Z,4.78
2019-01-04T10:55:24.583Z,4.93
2019-01-04T10:56:24.569Z,4.89
2019-01-04T10:57:24.647Z,5.00
2019-01-04T10:58:24.674Z,4.75
2019-01-04T10:59:24.680Z,4.87
2019-01-04T11:00:24.707Z,4.86
2019-01-04T11:01:24.707Z,5.08
2019-01-04T11:02:24.727Z,5.08
2019-01-04T11:03:24.668Z,4.99
2019-01-04T11:04:24.681Z,5.07
2019-01-04T11:05:24.713Z,5.21
2019-01-04T11:06:24.733Z,4.92
2019-01-04T11:07:24.737Z,4.87
2019-01-04T11:08:24.753Z,4.84
2019-01-04T11:09:24.767Z,4.74
2019-01-04T11:10:24.785Z,4.97
2019-01-04T11:11:24.810Z,4.75
2019-01-04T11:12:24.808Z,4.78
2019-01-04T11:13:24.816Z,4.84
2019-01-04T11:14:24.840Z,4.75
2019-01-04T11:15:24.858Z,4.86
2019-01-04T11:16:24.869Z,4.94
2019-01-04T11:17:24.884Z,4.97
2019-01-04T11:18:24.897Z,4.96
2019-01-04T11:19:24.922Z,5.04
2019-01-04T11:20:24.927Z,5.05
2019-01-04T11:21:24.992Z,4.96
2019-01-04T11:22:24.956Z,5.10
2019-01-04T11:23:24.970Z,5.05
2019-01-04T11:24:25.034Z,5.23
2019-01-04T11:25:25.001Z,5.18
2019-01-04T11:26:25.020Z,4.94
2019-01-04T11:27:25.036Z,4.80
2019-01-04T11:28:25.113Z,5.07
2019-01-04T11:29:25.083Z,5.17
2019-01-04T11:30:25.084Z,5.17
2019-01-04T11:31:25.107Z,5.32
2019-01-04T11:32:25.106Z,5.25
2019-01-04T11:33:25.120Z,5.33
2019-01-04T11:34:25.158Z,5.35
2019-01-04T11:35:25.161Z,5.25
2019-01-04T11:36:25.165Z,5.11
2019-01-04T11:37:25.180Z,5.05
2019-01-04T11:38:25.198Z,5.15
2019-01-04T11:39:25.216Z,5.18
2019-01-04T11:40:25.220Z,5.18
2019-01-04T11:41:25.242Z,5.14
2019-01-04T11:42:25.261Z,5.12
2019-01-04T11:43:25.274Z,5.12
2019-01-04T11:44:25.292Z,5.20
2019-01-04T11:45:25.314Z,5.25
2019-01-04T11:46:25.323Z,5.32
2019-01-04T11:47:25.330Z,5.21
2019-01-04T11:48:25.356Z,5.25
2019-01-04T11:49:25.377Z,5.05
2019-01-04T11:50:25.380Z,5.00
2019-01-04T11:51:25.430Z,5.15
2019-01-04T11:52:30.990Z,5.25
2019-01-04T11:53:25.420Z,5.35
2019-01-04T11:54:25.442Z,5.11
2019-01-04T11:55:25.456Z,5.29
2019-01-04T11:56:25.531Z,5.26
2019-01-04T11:57:25.481Z,5.28
2019-01-04T11:58:25.510Z,5.30
2019-01-04T11:59:25.548Z,5.26
2019-01-04T12:00:25.539Z,5.36
2019-01-04T12:01:25.547Z,5.33
2019-01-04T12:02:26.411Z,5.33
2019-01-04T12:03:25.576Z,5.41
2019-01-04T12:04:25.601Z,5.29
2019-01-04T12:05:25.604Z,5.38
2019-01-04T12:06:25.634Z,5.23
2019-01-04T12:07:25.637Z,5.30
2019-01-04T12:08:25.649Z,5.29
2019-01-04T12:09:25.674Z,5.29
2019-01-04T12:10:25.681Z,5.28
2019-01-04T12:11:25.698Z,5.25
2019-01-04T12:12:25.712Z,5.17
2019-01-04T12:13:25.736Z,4.99
2019-01-04T12:14:25.749Z,5.04
2019-01-04T12:15:25.768Z,5.23
2019-01-04T12:16:25.773Z,5.18
2019-01-04T12:17:25.792Z,5.20
2019-01-04T12:18:25.813Z,5.32
2019-01-04T12:19:25.820Z,5.26
2019-01-04T12:20:25.832Z,5.23
2019-01-04T12:21:25.853Z,5.33
2019-01-04T12:22:25.867Z,5.29
2019-01-04T12:23:25.904Z,5.23
2019-01-04T12:24:25.899Z,5.36
2019-01-04T12:25:25.930Z,5.23
2019-01-04T12:26:25.922Z,5.26
2019-01-04T12:27:25.964Z,5.23
2019-01-04T12:28:25.951Z,5.23
2019-01-04T12:29:25.973Z,5.46
2019-01-04T12:30:25.981Z,5.36
2019-01-04T12:31:26.000Z,5.48
2019-01-04T12:32:26.025Z,5.41
2019-01-04T12:33:26.033Z,5.33
2019-01-04T12:34:26.051Z,5.25
2019-01-04T12:35:26.072Z,5.23
2019-01-04T12:36:26.086Z,5.36
2019-01-04T12:37:26.092Z,5.28
2019-01-04T12:38:26.106Z,5.35
2019-01-04T12:39:26.127Z,5.36
2019-01-04T12:40:26.139Z,5.48
2019-01-04T12:41:26.172Z,5.39
2019-01-04T12:42:26.176Z,5.38
2019-01-04T12:43:26.185Z,5.38
2019-01-04T12:44:26.220Z,5.28
2019-01-04T12:45:26.221Z,5.30
2019-01-04T12:46:26.230Z,5.33
2019-01-04T12:47:26.243Z,5.25
2019-01-04T12:48:26.261Z,5.25
2019-01-04T12:49:26.278Z,5.14
2019-01-04T12:50:26.310Z,5.28
2019-01-04T12:51:26.303Z,5.25
2019-01-04T12:52:26.320Z,5.41
2019-01-04T12:53:26.341Z,5.38
2019-01-04T12:54:26.383Z,5.21
2019-01-04T12:55:26.362Z,5.28
2019-01-04T12:56:26.375Z,5.41
2019-01-04T12:57:26.391Z,5.38
2019-01-04T12:58:26.411Z,5.25
2019-01-04T12:59:26.438Z,5.33
2019-01-04T13:00:26.449Z,5.38
2019-01-04T13:01:26.473Z,5.23
2019-01-04T13:02:26.482Z,5.15
2019-01-04T13:03:26.499Z,5.36
2019-01-04T13:04:26.521Z,5.43
2019-01-04T13:05:26.526Z,5.41
2019-01-04T13:06:26.534Z,5.29
2019-01-04T13:07:26.561Z,5.43
2019-01-04T13:08:26.576Z,5.41
2019-01-04T13:09:26.575Z,5.36
2019-01-04T13:10:26.599Z,5.41
2019-01-04T13:11:26.615Z,5.43
2019-01-04T13:12:26.627Z,5.33
2019-01-04T13:13:26.652Z,5.25
2019-01-04T13:14:26.668Z,5.47
2019-01-04T13:15:26.675Z,5.50
2019-01-04T13:16:26.684Z,5.50
2019-01-04T13:17:26.718Z,5.41
2019-01-04T13:18:26.715Z,5.62